Aérodrome :
LOGIN :

S'inscrire | Disclaimer

   EN    FR    IT 

 










Légende :    VFR   VFR Marginal   IFR   IFR Intensif   IFR Très Intensif
Visi : 
Plafond : 
>= 8 km
>= 3000ft
5 à 8 km
1000 à 3000 ft
1500m à 5 km
500 à 1000 ft
800 à 1500m
200 à 500 ft
< 800m
< 200 ft
Symboles :   Orages  Brouillard  Fortes neiges  Fortes précipitations  Vent > 20 kt
SIGMETs :   Divers  Orages  Givrage  Turbulence  Onde Orograph.  Cendres Volcan.






- Altitude de l'aérodrome : 126 ft
- Code IATA : TIA


LATI - Rinas Mother Teresa Arpt - Tirana

DERNIER METAR :
  • 040820Z 16007KT 100V220 CAVOK 25/09 Q1011 NOSIG

METARs EXPIRÉS :
  • 040750Z 16008KT 110V210 CAVOK 25/08 Q1011 NOSIG
  • 040720Z 15008KT CAVOK 24/07 Q1011 NOSIG
  • 040650Z 16006KT 120V190 CAVOK 23/10 Q1011 NOSIG
  • 040620Z 15005KT 130V190 CAVOK 21/09 Q1011 NOSIG
  • 040550Z 16007KT CAVOK 20/08 Q1010 NOSIG
  • 040520Z 16008KT CAVOK 18/10 Q1010 NOSIG

TAF TAF LATI
Valide du 04 à 06h jusqu'au 05 à 06h UTC


040500Z 0406/0506 VRB04KT CAVOK TX26/0412Z TN12/0504Z
TEMPO 0409/0416 24012KT FEW040 SCT090
TEMPO 0420/0506 SCT050 BKN070



MET'MAP, la Météo Aéronautique d'un coup d'oeil ! - Copyright ORBIFLY Décembre 2007 - Disclaimer

ORBIFLY MET'MAP TEAM :

Programmation & Développement : Alexandra Zaïnal
Sur une idée originale de : Baudouin d'Aumeries
Assistance à la programmation : Marc-Olivier Méhu
Soutien technique & logistique : Manuel Goepfert

Contact : metmap@orbifly.com




SOURCES & CREDITS :

   NOAA